»·PEaware :: SKW5753 KSFO-KRDD

SKW5753 :: KSFO-KRDD

FLIGHT INFORMATION

Flight Status: Arrived
Operator:
SkyWest Airlines
More flights by this operator :: More flights under this callsign
Pilot: Juan B. (20291)
Aircraft: EMBRAER EMB-170/175
(E170)
More flights by this aircraft type
Origin: KSFO San Francisco Intl
United States
Destination: KRDD Redding Mun
United States
More flights between these airports :: More routes between these airports
Route: +TRUKN2 DEDHD RBL
File this flight plan on PilotEdge
Remarks:
Altitude:
(Current/Filed)
24,000ft
Speed:
(Current/Filed)
422kts
Departed: 30-Oct-19 01:33 PM
Arrived: 30-Oct-19 02:06 PM
Distance/Time
Traveled:
173nm/0:33
Distance/Time
To Go:
Arrived

Flight Plot

Page will automatically refresh every two minutes.

Flight plan parsing failed; only flown route is shown


Map Options




Map Legend


Flown Route
Filed Route
Departure Airport
Arrival Airport
Navaid (VOR, NDB)
Fix

Horizontal Profiles

Position Reports

Time Latitude Longitude Heading Altitude Ground
Speed
30-Oct-19 13:05 37.620361 -122.390019 30 30ft 0kts
30-Oct-19 13:05 37.620361 -122.390019 30 30ft 0kts
30-Oct-19 13:06 37.620361 -122.390019 30 30ft 0kts
30-Oct-19 13:08 37.620361 -122.390019 30 30ft 0kts
30-Oct-19 13:08 37.620361 -122.390019 30 30ft 0kts
30-Oct-19 13:09 37.620361 -122.390019 30 30ft 0kts
30-Oct-19 13:10 37.620361 -122.390019 30 30ft 0kts
30-Oct-19 13:11 37.620361 -122.390019 30 30ft 0kts
30-Oct-19 13:12 37.620361 -122.390019 30 30ft 0kts
30-Oct-19 13:13 37.620361 -122.390019 30 30ft 0kts
30-Oct-19 13:14 37.620361 -122.390019 30 30ft 0kts
30-Oct-19 13:15 37.620361 -122.390019 30 30ft 0kts
30-Oct-19 13:16 37.620361 -122.390019 30 30ft 0kts
30-Oct-19 13:17 37.620361 -122.390019 30 30ft 0kts
30-Oct-19 13:18 37.620361 -122.390019 30 30ft 0kts
30-Oct-19 13:19 37.620361 -122.390019 30 30ft 0kts
30-Oct-19 13:20 37.620361 -122.390019 30 30ft 0kts
30-Oct-19 13:21 37.620291 -122.390070 29 30ft 2kts
30-Oct-19 13:22 37.619804 -122.390361 354 30ft 2kts
30-Oct-19 13:23 37.619530 -122.390095 297 30ft 0kts
30-Oct-19 13:24 37.619530 -122.390095 297 30ft 0kts
30-Oct-19 13:25 37.619682 -122.390463 298 30ft 9kts
30-Oct-19 13:26 37.621494 -122.391546 28 30ft 10kts
30-Oct-19 13:27 37.621982 -122.387560 118 30ft 17kts
30-Oct-19 13:28 37.619268 -122.381044 117 30ft 20kts
30-Oct-19 13:29 37.615826 -122.380151 207 30ft 11kts
30-Oct-19 13:30 37.610992 -122.383270 208 30ft 18kts
30-Oct-19 13:31 37.609038 -122.382645 118 29ft 6kts
30-Oct-19 13:32 37.628473 -122.369379 30 1016ft 188kts
30-Oct-19 13:33 37.661385 -122.311679 52 5313ft 230kts
30-Oct-19 13:34 37.706347 -122.237851 47 9286ft 279kts
30-Oct-19 13:35 37.780418 -122.203742 6 12468ft 322kts
30-Oct-19 13:36 37.869870 -122.189656 8 16193ft 331kts
30-Oct-19 13:37 37.962237 -122.174489 8 19355ft 343kts
30-Oct-19 13:38 38.058167 -122.158689 7 22125ft 354kts
30-Oct-19 13:39 38.155442 -122.142633 7 24202ft 375kts
30-Oct-19 13:40 38.265778 -122.124382 7 24235ft 407kts
30-Oct-19 13:41 38.375645 -122.115832 357 24259ft 406kts
30-Oct-19 13:42 38.488111 -122.123259 357 24265ft 406kts
30-Oct-19 13:43 38.600648 -122.130991 357 24264ft 406kts
30-Oct-19 13:44 38.713312 -122.138747 356 24254ft 407kts
30-Oct-19 13:45 38.826411 -122.146581 356 24249ft 407kts
30-Oct-19 13:46 38.942855 -122.154638 356 24247ft 409kts
30-Oct-19 13:47 39.059164 -122.162749 356 24254ft 414kts
30-Oct-19 13:48 39.174469 -122.170810 356 24255ft 414kts
30-Oct-19 13:49 39.291555 -122.179014 356 24259ft 414kts
30-Oct-19 13:50 39.408031 -122.187204 356 23580ft 400kts
30-Oct-19 13:51 39.520530 -122.195143 356 22322ft 389kts
30-Oct-19 13:52 39.631598 -122.203003 356 21069ft 382kts
30-Oct-19 13:53 39.739778 -122.210683 356 19792ft 376kts
30-Oct-19 13:54 39.844409 -122.220432 354 18254ft 367kts
30-Oct-19 13:55 39.945784 -122.231863 355 16392ft 358kts
30-Oct-19 13:56 40.044209 -122.242959 355 14466ft 348kts
30-Oct-19 13:57 40.139327 -122.253712 355 12502ft 327kts
30-Oct-19 13:58 40.221130 -122.262983 355 9735ft 282kts
30-Oct-19 13:59 40.288567 -122.287636 331 7253ft 245kts
30-Oct-19 14:00 40.353118 -122.295035 0 5253ft 216kts
30-Oct-19 14:01 40.404964 -122.294964 0 3206ft 168kts
30-Oct-19 14:02 40.446044 -122.294543 1 1634ft 130kts
30-Oct-19 14:03 40.481217 -122.294945 0 933ft 127kts
30-Oct-19 14:04 40.512908 -122.294875 0 502ft 57kts
30-Oct-19 14:05 40.517000 -122.295593 229 504ft 4kts
30-Oct-19 14:06 40.514481 -122.298176 184 503ft 15kts
30-Oct-19 14:07 40.511414 -122.298596 182 502ft 12kts
30-Oct-19 14:08 40.507164 -122.298597 175 497ft 16kts

Navigation Log

Ident Type
Flight plan parsing failed, navigation log unavailable